EW9423 Klarup DK current weather conditions

sailwx.info

Wind from 221 at 3 knots gusting 6

Air temperature 5.6° C
Dewpoint 3.9° C

Last reported at 2019-Dec-08 23:07 UTC.
Time now 2019-Dec-08 23:43 UTC

Location: N 57°01' E 010°02'.
View on Google Maps.

See reports from other nearby stations

  
Tides and Currents Weather Stations Pressure Air Temp Water Temp Dewpoint Dewpoint Depression Visibility Wind Speed Wind Dir Waves Ship Positions
date/time (UTC)wind fromknots sea level pressurealtimeterstation pressurevisibilityair tempwater tempwave heightnotes
2019-Dec-08 23:07 221 3 gusting 6 5.6
2019-Dec-08 23:02 239 3 gusting 9 6.1
2019-Dec-08 22:57 262 4 gusting 12 6.1
2019-Dec-08 22:52 231 6 gusting 15 6.1
2019-Dec-08 22:47 256 6 gusting 18 6.1
2019-Dec-08 22:42 127 5 gusting 18 5.6
2019-Dec-08 22:37 186 5 gusting 11 5.6
2019-Dec-08 22:32 217 6 gusting 11 5.6
2019-Dec-08 22:27 220 6 gusting 11 5.6
2019-Dec-08 22:22 217 6 gusting 11 5.6
2019-Dec-08 22:17 196 7 gusting 16 5.6
2019-Dec-08 22:12 225 6 gusting 16 5.6
2019-Dec-08 22:07 238 6 gusting 13 5.6
2019-Dec-08 22:02 229 6 gusting 12 5.6
2019-Dec-08 21:57 211 6 gusting 11 5.6
2019-Dec-08 21:52 231 6 gusting 12 5.6
2019-Dec-08 21:47 182 6 gusting 12 5.6
2019-Dec-08 21:42 203 6 gusting 11 5.6
2019-Dec-08 21:37 200 6 gusting 12 5.6
2019-Dec-08 21:32 226 6 gusting 12 5.6
2019-Dec-08 21:27 198 5 gusting 12 5.6
2019-Dec-08 21:22 252 6 gusting 12 5.6
2019-Dec-08 21:17 218 7 gusting 14 5.6
2019-Dec-08 21:12 243 6 gusting 14 5.6
2019-Dec-08 21:07 212 6 gusting 12 5.6
2019-Dec-08 21:02 205 7 gusting 15 5.6
2019-Dec-08 20:57 229 7 gusting 15 5.6
2019-Dec-08 20:52 262 7 gusting 14 5.6
2019-Dec-08 20:47 220 7 gusting 13 5.6
2019-Dec-08 20:42 195 6 gusting 13 5.6
2019-Dec-08 20:37 227 6 gusting 13 5.6
2019-Dec-08 20:32 215 6 gusting 13 5.6
2019-Dec-08 20:27 189 5 gusting 10 5.6
2019-Dec-08 20:22 139 6 gusting 12 5.6
2019-Dec-08 20:17 169 6 gusting 13 5.6
2019-Dec-08 20:12 257 6 gusting 13 5.6
2019-Dec-08 20:07 203 6 gusting 12 5.6
2019-Dec-08 20:02 205 6 gusting 12 5.6
2019-Dec-08 19:57 239 3 gusting 10 5.6
2019-Dec-08 19:52 226 2 gusting 6 5.6
2019-Dec-08 19:47 223 3 gusting 10 5.6
2019-Dec-08 19:42 226 5 gusting 11 5.6
2019-Dec-08 19:37 214 6 gusting 11 5.6
2019-Dec-08 19:32 157 5 gusting 10 5.6
2019-Dec-08 19:27 184 4 gusting 9 5.6
2019-Dec-08 19:22 205 6 gusting 12 5.6
2019-Dec-08 19:17 235 6 gusting 12 5.6
2019-Dec-08 19:12 214 6 gusting 13 5.6
2019-Dec-08 19:07 196 6 gusting 13 6.1
2019-Dec-08 19:02 191 6 gusting 12 6.1
2019-Dec-08 18:57 224 6 gusting 13 6.1
2019-Dec-08 18:52 228 6 gusting 13 6.1
2019-Dec-08 18:47 221 6 gusting 13 6.1
2019-Dec-08 18:42 220 6 gusting 11 6.1
2019-Dec-08 18:37 207 6 gusting 13 6.1
2019-Dec-08 18:32 212 6 gusting 13 6.1
2019-Dec-08 18:27 187 6 gusting 13 6.1
2019-Dec-08 18:22 234 7 gusting 15 6.1
2019-Dec-08 18:17 204 7 gusting 21 6.7
2019-Dec-08 18:12 141 6 gusting 21 6.7
2019-Dec-08 18:07 229 4 gusting 11 6.7
2019-Dec-08 18:02 230 5 gusting 13 6.1
2019-Dec-08 17:57 166 6 gusting 15 6.1
2019-Dec-08 17:52 274 6 gusting 15 6.1
2019-Dec-08 17:47 122 6 gusting 13 6.1
2019-Dec-08 17:42 215 6 gusting 13 6.1
2019-Dec-08 17:37 274 5 gusting 13 6.1
2019-Dec-08 17:32 186 3 gusting 9 6.7
2019-Dec-08 17:27 199 4 gusting 13 6.7
2019-Dec-08 17:22 283 4 gusting 13 6.7
2019-Dec-08 17:17 212 4 gusting 9 6.7
2019-Dec-08 17:12 194 4 gusting 12 6.7
2019-Dec-08 17:07 312 4 gusting 12 7.2
2019-Dec-08 17:02 273 3 gusting 10 6.7
2019-Dec-08 16:57 254 4 gusting 10 7.2
2019-Dec-08 16:52 221 5 gusting 12 7.2
2019-Dec-08 16:47 168 6 gusting 12 7.2
2019-Dec-08 16:42 257 5 gusting 11 7.2
2019-Dec-08 16:37 245 5 gusting 15 7.2
2019-Dec-08 16:32 154 4 gusting 15 7.2
2019-Dec-08 16:27 214 4 gusting 10 6.7
2019-Dec-08 16:22 210 3 gusting 10 6.7
2019-Dec-08 16:17 189 3 gusting 7 6.7
2019-Dec-08 16:12 246 3 gusting 10 6.7
2019-Dec-08 16:07 191 4 gusting 11 6.7
2019-Dec-08 16:02 214 4 gusting 11 6.7
2019-Dec-08 15:57 194 4 gusting 12 6.7
2019-Dec-08 15:52 213 3 gusting 12 6.7
2019-Dec-08 15:47 274 3 gusting 9 7.2
2019-Dec-08 15:42 181 3 gusting 9 7.2
2019-Dec-08 15:37 285 4 gusting 13 7.2
2019-Dec-08 15:32 226 5 gusting 13 7.2
2019-Dec-08 15:27 241 5 gusting 13 7.2
2019-Dec-08 15:22 253 4 gusting 9 7.2
2019-Dec-08 15:17 260 4 gusting 9 7.8
2019-Dec-08 15:12 221 6 gusting 13 7.8
2019-Dec-08 15:07 247 6 gusting 13 7.8
2019-Dec-08 15:02 267 4 gusting 11 7.8
2019-Dec-08 14:57 293 3 gusting 8 7.8
2019-Dec-08 14:52 289 3 gusting 9 7.8
2019-Dec-08 14:47 219 4 gusting 12 7.8
2019-Dec-08 14:42 205 5 gusting 13 7.8
2019-Dec-08 14:37 180 5 gusting 14 7.8
2019-Dec-08 14:31 235 5 gusting 14 7.8
2019-Dec-08 14:26 257 5 gusting 13 7.8
2019-Dec-08 14:21 288 6 gusting 14 7.8
2019-Dec-08 14:16 238 6 gusting 16 8.3
2019-Dec-08 14:11 229 7 gusting 17 8.3
2019-Dec-08 14:06 252 7 gusting 17 8.3
2019-Dec-08 14:01 247 6 gusting 16 8.3
2019-Dec-08 13:56 266 6 gusting 15 8.3
2019-Dec-08 13:51 248 5 gusting 11 8.3
2019-Dec-08 13:46 245 6 gusting 16 8.9
2019-Dec-08 13:41 249 7 gusting 16 8.9
2019-Dec-08 13:36 253 6 gusting 15 8.9
2019-Dec-08 13:31 212 6 gusting 13 8.9
2019-Dec-08 13:26 238 5 gusting 12 8.9
2019-Dec-08 13:21 231 6 gusting 13 8.9
2019-Dec-08 13:16 197 5 gusting 13 8.9
2019-Dec-08 13:11 253 5 gusting 13 8.9
2019-Dec-08 13:06 264 6 gusting 15 9.4
2019-Dec-08 13:01 262 7 gusting 15 9.4
2019-Dec-08 12:56 269 6 gusting 15 9.4
2019-Dec-08 12:51 230 6 gusting 13 9.4
2019-Dec-08 12:46 276 6 gusting 15 9.4
2019-Dec-08 12:41 242 6 gusting 15 9.4
2019-Dec-08 12:36 246 6 gusting 13 9.4
2019-Dec-08 12:31 246 6 gusting 17 9.4
2019-Dec-08 12:26 210 7 gusting 17 9.4
2019-Dec-08 12:21 261 7 gusting 17 9.4
2019-Dec-08 12:16 248 6 gusting 17 9.4
2019-Dec-08 12:11 255 6 gusting 17 9.4
2019-Dec-08 12:06 259 7 gusting 16 9.4
2019-Dec-08 12:01 265 9 gusting 16 9.4
2019-Dec-08 11:56 268 9 gusting 20 10.0
2019-Dec-08 11:51 283 7 gusting 20 10.0
2019-Dec-08 11:46 270 9 gusting 19 10.0
2019-Dec-08 11:41 258 9 gusting 20 10.0
2019-Dec-08 11:36 264 7 gusting 20 10.0
2019-Dec-08 11:31 154 8 gusting 19 10.0
2019-Dec-08 11:26 340 7 gusting 19 10.0
2019-Dec-08 11:21 255 6 gusting 19 10.0
2019-Dec-08 11:16 252 7 gusting 19 10.0
2019-Dec-08 11:11 259 8 gusting 19 10.0
2019-Dec-08 11:06 240 8 gusting 19 10.0
2019-Dec-08 11:01 213 7 gusting 16 10.0
2019-Dec-08 10:56 265 6 gusting 16 10.0
2019-Dec-08 10:51 255 6 gusting 13 10.0
2019-Dec-08 10:46 277 6 gusting 13 10.0
2019-Dec-08 10:41 228 7 gusting 15 10.0
2019-Dec-08 10:36 224 8 gusting 15 10.0
2019-Dec-08 10:31 266 8 gusting 19 10.0
2019-Dec-08 10:26 214 9 gusting 24 10.0
2019-Dec-08 10:21 212 9 gusting 24 10.0
2019-Dec-08 10:16 218 8 gusting 19 10.0
2019-Dec-08 10:11 317 9 gusting 18 10.0
2019-Dec-08 10:06 162 9 gusting 18 9.4
2019-Dec-08 10:01 191 10 gusting 18 9.4
2019-Dec-08 09:56 214 10 gusting 19 9.4
2019-Dec-08 09:51 187 10 gusting 19 9.4
2019-Dec-08 09:46 174 10 gusting 18 9.4
2019-Dec-08 09:41 206 10 gusting 18 9.4
2019-Dec-08 09:36 200 10 gusting 17 9.4
2019-Dec-08 09:31 219 10 gusting 19 9.4
2019-Dec-08 09:26 195 10 gusting 19 9.4
2019-Dec-08 09:21 111 9 gusting 19 9.4
2019-Dec-08 09:16 236 9 gusting 19 9.4
2019-Dec-08 09:11 202 8 gusting 16 9.4
2019-Dec-08 09:06 160 8 gusting 18 9.4
2019-Dec-08 09:01 181 8 gusting 18 9.4
2019-Dec-08 08:56 185 9 gusting 15 9.4
2019-Dec-08 08:51 241 10 gusting 19 9.4
2019-Dec-08 08:46 222 10 gusting 19 9.4
2019-Dec-08 08:41 224 10 gusting 19 9.4
2019-Dec-08 08:36 198 9 gusting 21 9.4
2019-Dec-08 08:31 264 9 gusting 21 9.4
2019-Dec-08 08:26 245 9 gusting 19 9.4
2019-Dec-08 08:21 218 9 gusting 19 9.4
2019-Dec-08 08:16 195 9 gusting 19 9.4
2019-Dec-08 08:11 241 8 gusting 13 9.4
2019-Dec-08 08:06 194 8 gusting 15 9.4
2019-Dec-08 08:01 232 8 gusting 16 9.4
2019-Dec-08 07:56 238 9 gusting 19 9.4
2019-Dec-08 07:51 201 8 gusting 19 9.4
2019-Dec-08 07:46 163 7 gusting 17 9.4
2019-Dec-08 07:41 145 7 gusting 14 8.9
2019-Dec-08 07:36 149 8 gusting 18 9.4
2019-Dec-08 07:31 228 8 gusting 18 8.9
2019-Dec-08 07:26 233 8 gusting 16 8.9
2019-Dec-08 07:21 229 8 gusting 17 8.9
2019-Dec-08 07:16 189 8 gusting 17 8.9
2019-Dec-08 07:11 160 9 gusting 16 8.9
2019-Dec-08 07:06 228 8 gusting 16 8.9
2019-Dec-08 07:01 129 9 gusting 20 8.9
2019-Dec-08 06:56 176 8 gusting 20 8.9
2019-Dec-08 06:51 198 8 gusting 17 8.9
2019-Dec-08 06:46 207 9 gusting 17 8.9
2019-Dec-08 06:41 227 9 gusting 17 8.9
2019-Dec-08 06:36 159 8 gusting 17 8.9
2019-Dec-08 06:31 167 9 gusting 18 8.9
2019-Dec-08 06:26 203 10 gusting 19 8.9
2019-Dec-08 06:21 212 9 gusting 19 8.9
2019-Dec-08 06:16 221 9 gusting 19 8.9
2019-Dec-08 06:11 193 10 gusting 19 8.9
2019-Dec-08 06:05 202 11 gusting 18 8.9
2019-Dec-08 06:00 153 10 gusting 17 8.3
2019-Dec-08 05:55 188 9 gusting 20 8.3
2019-Dec-08 05:50 216 10 gusting 20 8.3
2019-Dec-08 05:45 251 9 gusting 18 8.3
2019-Dec-08 05:40 137 8 gusting 16 8.3
2019-Dec-08 05:35 153 7 gusting 17 8.3
2019-Dec-08 05:30 223 7 gusting 17 8.3
2019-Dec-08 05:25 235 6 gusting 15 8.3
2019-Dec-08 05:20 229 6 gusting 15 8.3
2019-Dec-08 05:15 145 6 gusting 15 7.8
2019-Dec-08 05:10 166 6 gusting 18 7.8
2019-Dec-08 05:05 168 6 gusting 18 7.8
2019-Dec-08 05:00 197 6 gusting 14 7.8
2019-Dec-08 04:55 146 6 gusting 13 7.8
2019-Dec-08 04:50 157 6 gusting 13 7.8
2019-Dec-08 04:45 085 6 gusting 13 7.8
2019-Dec-08 04:40 122 6 gusting 13 7.2
2019-Dec-08 04:35 186 5 gusting 13 7.2
2019-Dec-08 04:30 230 4 gusting 10 7.2
2019-Dec-08 04:25 078 4 gusting 10 7.2
2019-Dec-08 04:20 219 4 gusting 10 7.2
2019-Dec-08 04:15 242 4 gusting 10 7.2
2019-Dec-08 04:10 146 4 gusting 12 7.2
2019-Dec-08 04:05 042 4 gusting 12 6.7
2019-Dec-08 04:00 165 4 gusting 13 6.7
2019-Dec-08 03:55 122 5 gusting 13 6.7
2019-Dec-08 03:50 147 6 gusting 12 6.7
2019-Dec-08 03:45 162 5 gusting 11 6.7
2019-Dec-08 03:40 132 5 gusting 9 6.7
2019-Dec-08 03:35 155 5 gusting 8 6.7
2019-Dec-08 03:30 153 5 gusting 9 6.7
2019-Dec-08 03:25 163 5 gusting 10 6.1
2019-Dec-08 03:20 173 5 gusting 10 6.1
2019-Dec-08 03:15 152 5 gusting 10 6.1
2019-Dec-08 03:10 148 5 gusting 9 6.1
2019-Dec-08 03:05 110 5 gusting 8 6.1
2019-Dec-08 03:00 133 5 gusting 8 5.6
2019-Dec-08 02:55 146 5 gusting 9 5.6
2019-Dec-08 02:50 165 6 gusting 9 5.6
2019-Dec-08 02:45 156 5 gusting 9 5.6
2019-Dec-08 02:40 151 5 gusting 10 5.6
2019-Dec-08 02:35 135 5 gusting 10 5.6
2019-Dec-08 02:30 135 5 gusting 7 5.6
2019-Dec-08 02:25 150 5 gusting 8 5.6
2019-Dec-08 02:20 139 4 gusting 8 5.6
2019-Dec-08 02:15 158 4 gusting 8 5.6
2019-Dec-08 02:10 136 4 gusting 7 5.6
2019-Dec-08 02:05 150 4 gusting 8 5.6
2019-Dec-08 02:00 165 4 gusting 8 5.6
2019-Dec-08 01:55 141 4 gusting 9 5.6
2019-Dec-08 01:50 160 4 gusting 9 5.6
2019-Dec-08 01:45 142 3 gusting 8 5.6
2019-Dec-08 01:40 072 3 gusting 8 5.6
2019-Dec-08 01:35 129 4 gusting 8 5.0
2019-Dec-08 01:30 168 5 gusting 9 5.0
2019-Dec-08 01:25 152 5 gusting 9 5.0
2019-Dec-08 01:20 167 4 gusting 7 5.0
2019-Dec-08 01:10 155 3 gusting 6 5.0
2019-Dec-08 01:05 135 4 gusting 8 5.0
2019-Dec-08 01:00 134 4 gusting 8 5.0
2019-Dec-08 00:55 113 4 gusting 7 5.0
2019-Dec-08 00:50 133 3 gusting 6 5.0
2019-Dec-08 00:45 174 4 gusting 8 5.0
2019-Dec-08 00:40 056 4 gusting 8 4.4
2019-Dec-08 00:35 127 3 gusting 6 4.4
2019-Dec-08 00:30 141 2 gusting 6 4.4
2019-Dec-08 00:25 155 3 gusting 7 4.4
2019-Dec-08 00:20 290 4 gusting 7 4.4
2019-Dec-08 00:15 143 3 gusting 7 4.4
2019-Dec-08 00:10 126 2 gusting 6 4.4
2019-Dec-08 00:05 144 1 gusting 6 4.4
2019-Dec-08 00:00 150 2 gusting 6 4.4
2019-Dec-07 23:55 136 2 gusting 5 4.4
2019-Dec-07 23:50 141 1 gusting 6 4.4
2019-Dec-07 23:45 148 1 gusting 6 4.4
2019-Dec-07 23:40 169 0 gusting 5 4.4
2019-Dec-07 23:35 112 0 gusting 3 4.4
2019-Dec-07 23:30 138 0 gusting 5 4.4
2019-Dec-07 23:25 166 1 gusting 6 4.4
2019-Dec-07 23:20 150 1 gusting 6 4.4
2019-Dec-07 23:15 136 1 gusting 4 4.4
2019-Dec-07 23:10 149 0 gusting 3 4.4
2019-Dec-07 23:05 160 0 gusting 3 4.4
2019-Dec-07 23:00 158 0 gusting 4 3.9
2019-Dec-07 22:55 186 1 gusting 4 4.4
2019-Dec-07 22:50 191 0 gusting 3 3.9
2019-Dec-07 22:45 225 3.9
2019-Dec-07 22:40 156 0 gusting 3 3.9
2019-Dec-07 22:35 180 1 gusting 3 3.9
2019-Dec-07 22:30 224 0 gusting 3 3.9
2019-Dec-07 22:25 174 0 gusting 2 3.3
2019-Dec-07 22:20 236 2 gusting 4 3.3
2019-Dec-07 22:14 224 2 gusting 5 3.3
2019-Dec-07 22:09 208 2 gusting 5 3.3
2019-Dec-07 22:04 238 2 gusting 5 3.3
2019-Dec-07 21:59 254 2 gusting 5 3.3
2019-Dec-07 21:54 233 3 gusting 6 3.3
2019-Dec-07 21:49 223 3 gusting 6 3.3
2019-Dec-07 21:44 190 3 gusting 6 3.3
2019-Dec-07 21:39 176 3 gusting 6 3.3
2019-Dec-07 21:34 223 2 gusting 6 2.8
2019-Dec-07 21:29 221 2 gusting 5 2.8
2019-Dec-07 21:24 222 2 gusting 5 2.8
2019-Dec-07 21:19 182 2 gusting 5 2.8
2019-Dec-07 21:14 217 2 gusting 5 3.3
2019-Dec-07 21:09 168 1 gusting 4 3.3
2019-Dec-07 21:04 194 1 gusting 3 3.3
2019-Dec-07 20:59 217 0 gusting 3 2.8
2019-Dec-07 20:54 199 0 gusting 3 2.8
2019-Dec-07 20:49 159 0 gusting 3 2.8
2019-Dec-07 20:44 160 1 gusting 3 2.8
2019-Dec-07 20:39 189 1 gusting 5 3.3
2019-Dec-07 20:34 231 1 gusting 5 3.3
2019-Dec-07 20:29 226 0 gusting 3 3.3
2019-Dec-07 20:24 202 0 gusting 2 3.3
2019-Dec-07 20:19 233 0 gusting 2 3.3
2019-Dec-07 20:14 217 0 gusting 2 3.3
2019-Dec-07 20:09 158 0 gusting 3 3.3
2019-Dec-07 20:04 186 0 gusting 3 3.3
2019-Dec-07 19:59 200 0 gusting 1 3.3
2019-Dec-07 19:54 237 3.3
2019-Dec-07 19:49 221 3.3
2019-Dec-07 19:44 182 3.9
2019-Dec-07 19:38 253 0 gusting 3 3.9
2019-Dec-07 19:33 248 0 gusting 3 4.4
2019-Dec-07 19:29 224 1 gusting 5 4.4
2019-Dec-07 19:23 246 1 gusting 5 3.9
2019-Dec-07 19:18 288 1 gusting 5 3.9
2019-Dec-07 19:13 251 1 gusting 5 3.9
2019-Dec-07 19:08 248 1 gusting 5 3.9
2019-Dec-07 19:03 266 1 gusting 3 3.9
2019-Dec-07 18:58 245 1 gusting 6 4.4
2019-Dec-07 18:53 261 1 gusting 6 4.4
2019-Dec-07 18:48 250 1 gusting 6 4.4
2019-Dec-07 18:43 264 1 gusting 6 4.4
2019-Dec-07 18:38 256 0 gusting 3 4.4
2019-Dec-07 18:33 262 1 gusting 3 4.4
2019-Dec-07 18:28 274 2 gusting 4 5.0
2019-Dec-07 18:23 255 1 gusting 4 5.0
2019-Dec-07 18:18 260 1 gusting 4 4.4
2019-Dec-07 18:13 267 0 gusting 3 4.4
2019-Dec-07 18:08 148 0 gusting 2 4.4
2019-Dec-07 18:03 184 0 gusting 4 4.4
2019-Dec-07 17:58 250 1 gusting 6 4.4
2019-Dec-07 17:53 228 2 gusting 6 5.0
2019-Dec-07 17:48 269 3 gusting 6 5.0
2019-Dec-07 17:43 275 3 gusting 9 5.0
2019-Dec-07 17:38 269 4 gusting 9 5.0
2019-Dec-07 17:33 270 4 gusting 9 5.0
2019-Dec-07 17:28 258 5 gusting 9 5.0
2019-Dec-07 17:23 259 6 gusting 10 5.0
2019-Dec-07 17:18 279 6 gusting 10 5.0
2019-Dec-07 17:13 274 5 gusting 10 5.0
2019-Dec-07 17:08 242 4 gusting 7 5.0
2019-Dec-07 17:03 267 4 gusting 7 5.0
2019-Dec-07 16:58 263 4 gusting 9 5.0
2019-Dec-07 16:53 299 5 gusting 9 5.6
2019-Dec-07 16:48 257 5 gusting 9 5.6
2019-Dec-07 16:43 224 5 gusting 9 5.6
2019-Dec-07 16:38 262 3 gusting 8 5.0
2019-Dec-07 16:33 263 4 gusting 13 5.6
2019-Dec-07 16:28 254 4 gusting 13 5.6
2019-Dec-07 16:23 257 3 gusting 9 5.6
2019-Dec-07 16:18 257 3 gusting 10 5.0
2019-Dec-07 16:13 262 4 gusting 10 5.0
2019-Dec-07 16:08 257 5 gusting 11 5.6
2019-Dec-07 16:03 246 4 gusting 11 5.0
2019-Dec-07 15:58 250 4 gusting 9 5.0
2019-Dec-07 15:53 270 5 gusting 12 5.6
2019-Dec-07 15:48 287 5 gusting 12 5.6
2019-Dec-07 15:43 250 6 gusting 11 5.6
2019-Dec-07 15:38 286 6 gusting 13 5.6
2019-Dec-07 15:33 260 7 gusting 13 5.6
2019-Dec-07 15:28 238 6 gusting 13 5.6
2019-Dec-07 15:23 262 6 gusting 13 5.6
2019-Dec-07 15:18 268 6 gusting 13 5.6
2019-Dec-07 15:13 274 6 gusting 14 5.6
2019-Dec-07 15:08 247 7 gusting 14 5.6
2019-Dec-07 15:03 020 7 gusting 14 5.6
2019-Dec-07 14:58 276 6 gusting 14 5.6
2019-Dec-07 14:53 241 7 gusting 16 5.6
2019-Dec-07 14:48 276 7 gusting 16 5.6
2019-Dec-07 14:43 238 6 gusting 15 5.6
2019-Dec-07 14:38 255 6 gusting 14 5.6
2019-Dec-07 14:33 306 6 gusting 16 6.1
2019-Dec-07 14:28 246 6 gusting 16 6.1
2019-Dec-07 14:23 276 6 gusting 16 6.1
2019-Dec-07 14:18 252 7 gusting 16 6.1
2019-Dec-07 14:13 260 7 gusting 15 6.1
2019-Dec-07 14:08 263 7 gusting 15 6.1
2019-Dec-07 14:03 220 6 gusting 13 6.1
2019-Dec-07 13:58 263 7 gusting 16 6.1
2019-Dec-07 13:53 285 7 gusting 16 6.1
2019-Dec-07 13:48 283 7 gusting 16 6.1
2019-Dec-07 13:43 265 8 gusting 18 6.1
2019-Dec-07 13:38 250 8 gusting 18 6.1
2019-Dec-07 13:33 252 6 gusting 17 6.1
2019-Dec-07 13:28 297 6 gusting 17 6.1
2019-Dec-07 13:23 284 8 gusting 18 6.1
2019-Dec-07 13:18 264 8 gusting 17 6.1
2019-Dec-07 13:13 256 7 gusting 16 6.1
2019-Dec-07 13:08 264 6 gusting 13 6.1
2019-Dec-07 13:03 258 6 gusting 13 6.1
2019-Dec-07 12:58 240 5 gusting 11 6.1
2019-Dec-07 12:53 350 6 gusting 14 6.1
2019-Dec-07 12:48 263 8 gusting 19 6.1
2019-Dec-07 12:43 297 10 gusting 19 6.1
2019-Dec-07 12:38 262 8 gusting 17 6.1
2019-Dec-07 12:33 273 7 gusting 17 6.1
2019-Dec-07 12:28 300 6 gusting 16 6.1
2019-Dec-07 12:23 264 6 gusting 16 6.7
2019-Dec-07 12:18 216 7 gusting 14 6.7
2019-Dec-07 12:12 285 7 gusting 17 6.7
2019-Dec-07 12:08 232 7 gusting 17 6.7
2019-Dec-07 12:02 243 6 gusting 17 6.7
2019-Dec-07 11:57 245 6 gusting 14 6.7
2019-Dec-07 11:52 305 6 gusting 13 6.7
2019-Dec-07 11:47 335 5 gusting 13 6.7
2019-Dec-07 11:42 250 5 gusting 14 6.7
2019-Dec-07 11:38 322 5 gusting 14 6.7
2019-Dec-07 11:32 242 6 gusting 14 6.7
2019-Dec-07 11:27 314 6 gusting 14 6.7
2019-Dec-07 11:22 6.7
2019-Dec-07 08:10 285 6 gusting 16 6.7
2019-Dec-07 08:05 255 6 gusting 15 6.7
2019-Dec-07 08:00 262 6 gusting 14 6.7
2019-Dec-07 07:55 298 6 gusting 16 6.7
2019-Dec-07 07:50 254 6 gusting 16 6.7
2019-Dec-07 07:45 243 6 gusting 14 6.7
2019-Dec-07 07:40 004 6 gusting 14 6.7
2019-Dec-07 07:35 281 5 gusting 13 6.7
2019-Dec-07 07:30 015 5 gusting 12 6.7
2019-Dec-07 07:25 278 6 gusting 13 6.7
2019-Dec-07 07:20 279 6 gusting 13 6.7
2019-Dec-07 07:15 001 5 gusting 19 6.7
2019-Dec-07 07:10 263 6 gusting 19 6.7
2019-Dec-07 07:04 244 6 gusting 12 6.7
2019-Dec-07 06:59 261 6 gusting 12 6.7
2019-Dec-07 06:54 306 6 gusting 11 6.7
2019-Dec-07 06:49 274 6 gusting 18 6.7
2019-Dec-07 06:44 319 6 gusting 18 6.7
2019-Dec-07 06:39 178 6 gusting 13 6.7
2019-Dec-07 06:34 245 7 gusting 13 6.7
2019-Dec-07 06:29 322 7 gusting 16 6.7
2019-Dec-07 06:24 273 6 gusting 16 6.7
2019-Dec-07 06:19 276 7 gusting 18 6.7
2019-Dec-07 06:14 244 6 gusting 18 6.7
2019-Dec-07 06:09 281 6 gusting 13 6.7
2019-Dec-07 06:04 253 6 gusting 13 6.7
2019-Dec-07 05:59 272 6 gusting 14 6.7
2019-Dec-07 05:54 287 6 gusting 14 7.2
2019-Dec-07 05:49 304 6 gusting 13 7.2
2019-Dec-07 05:44 290 6 gusting 13 7.2
2019-Dec-07 05:39 264 5 gusting 13 7.2
2019-Dec-07 05:34 250 4 gusting 12 6.7
2019-Dec-07 05:29 268 6 gusting 14 6.7
2019-Dec-07 05:24 311 6 gusting 14 7.2
2019-Dec-07 05:19 275 6 gusting 12 7.2
2019-Dec-07 05:14 319 5 gusting 12 7.2
2019-Dec-07 05:09 288 5 gusting 12 7.2
2019-Dec-07 05:04 264 6 gusting 13 7.2
2019-Dec-07 04:59 287 6 gusting 13 7.2
2019-Dec-07 04:54 317 6 gusting 13 7.2
2019-Dec-07 04:49 327 6 gusting 14 7.2
2019-Dec-07 04:44 303 7 gusting 15 7.2
2019-Dec-07 04:39 281 6 gusting 15 7.2
2019-Dec-07 04:34 268 5 gusting 13 7.2
2019-Dec-07 04:29 250 6 gusting 13 7.8
2019-Dec-07 04:24 266 6 gusting 13 7.8
2019-Dec-07 04:19 260 6 gusting 17 7.8
2019-Dec-07 04:14 260 6 gusting 17 7.8
2019-Dec-07 04:09 259 5 gusting 12 7.8
2019-Dec-07 04:04 272 5 gusting 12 7.8
2019-Dec-07 03:59 257 5 gusting 13 7.8
2019-Dec-07 03:54 281 5 gusting 13 8.3
2019-Dec-07 03:49 276 4 gusting 11 8.3
2019-Dec-07 03:44 297 4 gusting 12 8.3
2019-Dec-07 03:39 266 4 gusting 12 8.3
2019-Dec-07 03:34 248 4 gusting 9 8.9
2019-Dec-07 03:29 252 4 gusting 9 8.9
2019-Dec-07 03:24 247 4 gusting 9 8.9
2019-Dec-07 03:19 265 4 gusting 11 8.9
2019-Dec-07 03:14 244 4 gusting 11 8.9
2019-Dec-07 03:09 248 4 gusting 8 8.9
2019-Dec-07 03:04 290 4 gusting 8 8.9
2019-Dec-07 02:59 269 4 gusting 8 8.9
2019-Dec-07 02:54 266 4 gusting 8 8.9
2019-Dec-07 02:49 270 4 gusting 7 8.9
2019-Dec-07 02:44 269 3 gusting 7 8.9
2019-Dec-07 02:39 283 2 gusting 6 8.9
2019-Dec-07 02:34 233 2 gusting 7 8.9
2019-Dec-07 02:29 256 2 gusting 7 8.9
2019-Dec-07 02:24 254 2 gusting 6 8.9
2019-Dec-07 02:19 284 2 gusting 6 8.9
2019-Dec-07 02:14 231 2 gusting 6 8.9
2019-Dec-07 02:09 257 2 gusting 7 9.4
2019-Dec-07 02:04 240 3 gusting 7 9.4
2019-Dec-07 01:59 274 3 gusting 7 9.4
2019-Dec-07 01:54 224 2 gusting 6 9.4
2019-Dec-07 01:49 216 3 gusting 10 9.4
2019-Dec-07 01:44 257 4 gusting 10 9.4
2019-Dec-07 01:39 247 4 gusting 10 9.4
2019-Dec-07 01:34 259 3 gusting 12 9.4
2019-Dec-07 01:29 155 4 gusting 12 9.4
2019-Dec-07 01:24 231 4 gusting 12 9.4
2019-Dec-07 01:19 162 4 gusting 10 9.4
2019-Dec-07 01:14 271 4 gusting 11 9.4
2019-Dec-07 01:09 247 4 gusting 11 9.4
2019-Dec-07 01:04 265 4 gusting 10 9.4
2019-Dec-07 00:59 202 3 gusting 10 9.4
2019-Dec-07 00:54 239 4 gusting 10 9.4
2019-Dec-07 00:49 332 4 gusting 10 9.4
2019-Dec-07 00:44 237 4 gusting 12 9.4
2019-Dec-07 00:39 278 4 gusting 12 9.4
2019-Dec-07 00:34 236 4 gusting 10 9.4
2019-Dec-07 00:29 224 5 gusting 13 9.4
2019-Dec-07 00:24 230 4 gusting 13 9.4
2019-Dec-07 00:19 233 3 gusting 9 10.0
2019-Dec-07 00:14 240 3 gusting 9 10.0
2019-Dec-07 00:09 233 4 gusting 11 10.0
2019-Dec-07 00:04 266 4 gusting 13 10.0
2019-Dec-06 23:59 183 3 gusting 13 10.0
2019-Dec-06 23:54 261 3 gusting 8 10.0
2019-Dec-06 23:48 105 4 gusting 10 10.0
2019-Dec-06 23:43 208 4 gusting 10 10.0
2019-Dec-06 23:38 233 4 gusting 13 10.0
2019-Dec-06 23:33 249 4 gusting 13 10.0
2019-Dec-06 23:28 250 4 gusting 10 10.0
2019-Dec-06 23:23 203 3 gusting 10 9.4
2019-Dec-06 23:18 239 4 gusting 10 9.4
2019-Dec-06 23:13 274 3 gusting 10 9.4
2019-Dec-06 23:08 192 3 gusting 9 9.4
2019-Dec-06 23:03 251 3 gusting 8 9.4